Time;durP1;ratioP1;P1;durP2;ratioP2;P2;SDS_P1;SDS_P2;PMS_P1;PMS_P2;Temp;Humidity;BMP_temperature;BMP_pressure;BME280_temperature;BME280_humidity;BME280_pressure;Samples;Min_cycle;Max_cycle;Signal;HPM_P1;HPM_P2
2022/10/23 00:01:49;;;;;;;8.98;7.32;;;14.60;99.90;;;;;;5007228;28;20030;-61
2022/10/23 00:04:34;;;;;;;10.23;7.10;;;14.60;99.90;;;;;;4981668;28;20494;-61
2022/10/23 00:07:20;;;;;;;9.10;7.10;;;14.50;99.90;;;;;;4981578;28;20164;-61
2022/10/23 00:10:08;;;;;;;7.90;7.10;;;14.50;99.90;;;;;;4998036;28;20030;-60
2022/10/23 00:12:54;;;;;;;11.63;7.50;;;14.50;99.90;;;;;;5011065;28;20050;-61
2022/10/23 00:15:40;;;;;;;9.90;7.03;;;14.50;99.90;;;;;;4998243;28;20458;-61
2022/10/23 00:18:26;;;;;;;11.75;8.02;;;14.40;99.90;;;;;;5008813;28;20034;-63
2022/10/23 00:21:15;;;;;;;11.13;7.25;;;14.30;99.90;;;;;;5010501;28;20069;-65
2022/10/23 00:24:02;;;;;;;9.18;6.97;;;14.20;99.90;;;;;;5014102;28;20085;-63
2022/10/23 00:26:50;;;;;;;11.05;7.88;;;14.10;99.90;;;;;;5013935;28;20107;-65
2022/10/23 00:29:36;;;;;;;47.75;31.60;;;14.00;99.90;;;;;;5003462;28;20610;-63
2022/10/23 00:32:25;;;;;;;53.40;37.42;;;13.90;99.90;;;;;;5014214;28;20026;-64
2022/10/23 00:35:11;;;;;;;37.78;26.00;;;13.90;99.90;;;;;;4986618;28;20089;-60
2022/10/23 00:37:57;;;;;;;25.20;17.15;;;13.90;99.90;;;;;;4998384;28;20065;-64
2022/10/23 00:40:44;;;;;;;14.63;9.18;;;13.90;99.90;;;;;;4991181;28;20189;-61
2022/10/23 00:43:53;;;;;;;8.05;6.78;;;13.90;99.90;;;;;;5012462;28;20160;-60
2022/10/23 00:46:42;;;;;;;19.83;14.48;;;13.90;99.90;;;;;;5012246;28;20037;-63
2022/10/23 00:49:28;;;;;;;9.93;8.73;;;13.90;99.90;;;;;;5012246;28;20022;-62
2022/10/23 00:52:14;;;;;;;9.82;7.60;;;13.90;99.90;;;;;;4984010;28;20048;-61
2022/10/23 00:55:01;;;;;;;8.70;6.65;;;13.80;99.90;;;;;;4998107;28;20065;-62
2022/10/23 00:57:49;;;;;;;8.02;6.05;;;13.80;99.90;;;;;;5012166;28;20029;-64
2022/10/23 01:00:46;;;;;;;10.82;7.13;;;13.80;99.90;;;;;;4996758;28;20661;-62
2022/10/23 01:03:32;;;;;;;9.02;6.60;;;13.80;99.90;;;;;;5011597;28;20034;-59
2022/10/23 01:06:31;;;;;;;8.98;6.45;;;13.80;99.90;;;;;;4996191;28;20046;-58
2022/10/23 01:09:30;;;;;;;6.72;6.00;;;13.80;99.90;;;;;;5004699;28;20399;-61
2022/10/23 01:12:38;;;;;;;8.40;6.47;;;13.80;99.90;;;;;;5011828;28;20077;-59
2022/10/23 01:15:36;;;;;;;14.70;6.93;;;13.80;99.90;;;;;;5001525;28;20018;-62
2022/10/23 01:18:33;;;;;;;12.20;7.65;;;13.70;99.90;;;;;;4991174;28;20117;-58
2022/10/23 01:21:40;;;;;;;8.25;7.07;;;13.70;99.90;;;;;;4994026;28;20033;-58
2022/10/23 01:24:50;;;;;;;8.43;6.90;;;13.60;99.90;;;;;;5012021;28;20375;-60
2022/10/23 01:27:40;;;;;;;8.88;6.97;;;13.60;99.90;;;;;;5011120;28;20060;-62
2022/10/23 01:30:28;;;;;;;7.30;6.13;;;13.60;99.90;;;;;;4992339;28;20065;-61
2022/10/23 01:33:20;;;;;;;9.30;6.75;;;13.60;99.90;;;;;;4997780;28;20045;-64
2022/10/23 01:36:11;;;;;;;11.35;6.68;;;13.70;99.90;;;;;;5010293;28;20048;-65
2022/10/23 01:39:13;;;;;;;10.70;6.30;;;13.60;99.90;;;;;;4998426;28;20056;-65
2022/10/23 01:42:09;;;;;;;55.75;34.60;;;13.60;99.90;;;;;;4978866;28;20110;-65
2022/10/23 01:45:01;;;;;;;73.45;45.95;;;13.60;99.90;;;;;;4988254;28;20034;-65
2022/10/23 01:47:49;;;;;;;20.38;14.02;;;13.60;99.90;;;;;;5012170;28;20033;-65
2022/10/23 01:50:37;;;;;;;10.20;8.20;;;13.60;99.90;;;;;;5011935;28;20682;-64
2022/10/23 01:53:26;;;;;;;12.55;7.97;;;13.70;99.90;;;;;;4995362;28;20046;-63
2022/10/23 01:56:18;;;;;;;15.45;7.90;;;13.70;99.90;;;;;;4997322;28;20101;-64
2022/10/23 01:59:15;;;;;;;10.45;6.57;;;13.70;99.90;;;;;;5012711;28;20037;-64
2022/10/23 02:02:03;;;;;;;9.77;7.45;;;13.60;99.90;;;;;;4998051;28;20117;-63
2022/10/23 02:05:13;;;;;;;7.85;6.72;;;13.60;99.90;;;;;;5011665;28;20041;-62
2022/10/23 02:08:00;;;;;;;12.93;7.35;;;13.60;99.90;;;;;;5010992;28;20038;-64
2022/10/23 02:11:08;;;;;;;9.10;6.82;;;13.70;99.90;;;;;;5011914;28;20104;-64
2022/10/23 02:14:00;;;;;;;7.78;6.70;;;13.70;99.90;;;;;;5011319;28;20041;-65
2022/10/23 02:16:51;;;;;;;10.80;6.55;;;13.70;99.90;;;;;;5011316;28;20026;-63
2022/10/23 02:19:55;;;;;;;21.65;16.45;;;13.70;99.90;;;;;;5011688;28;20430;-64
2022/10/23 02:22:47;;;;;;;102.93;63.15;;;13.70;99.90;;;;;;5010875;28;20029;-63
2022/10/23 02:25:41;;;;;;;62.42;40.15;;;13.70;99.90;;;;;;5010266;28;20034;-63
2022/10/23 02:28:46;;;;;;;29.48;19.90;;;13.70;99.90;;;;;;5010834;28;20113;-64
2022/10/23 02:31:32;;;;;;;45.03;29.50;;;13.70;99.90;;;;;;5006533;28;20022;-64
2022/10/23 02:34:18;;;;;;;43.80;28.23;;;13.70;99.90;;;;;;4984222;28;20418;-64
2022/10/23 02:37:04;;;;;;;24.48;13.88;;;13.60;99.90;;;;;;5010110;28;20081;-64
2022/10/23 02:39:51;;;;;;;14.63;8.68;;;13.60;99.90;;;;;;5011392;28;20030;-63
2022/10/23 02:42:48;;;;;;;12.60;8.85;;;13.60;99.90;;;;;;5005723;28;20041;-65
2022/10/23 02:45:52;;;;;;;10.60;8.27;;;13.60;99.90;;;;;;5012175;28;20206;-64
2022/10/23 02:48:46;;;;;;;12.23;8.73;;;13.50;99.90;;;;;;4992604;28;20026;-63
2022/10/23 02:51:41;;;;;;;10.23;8.00;;;13.50;99.90;;;;;;4995267;28;20066;-63
2022/10/23 02:54:51;;;;;;;11.23;7.65;;;13.60;99.90;;;;;;5012597;28;20414;-65
2022/10/23 02:57:43;;;;;;;10.00;6.90;;;13.60;99.90;;;;;;5006006;28;20033;-64
2022/10/23 03:00:32;;;;;;;9.50;6.93;;;13.50;99.90;;;;;;4996304;28;20053;-65
2022/10/23 03:03:23;;;;;;;9.57;6.95;;;13.40;99.90;;;;;;4999035;28;20113;-65
2022/10/23 03:06:09;;;;;;;9.23;7.45;;;13.40;99.90;;;;;;5000455;28;20049;-65
2022/10/23 03:09:02;;;;;;;10.02;7.35;;;13.30;99.90;;;;;;5011914;28;20056;-64
2022/10/23 03:11:48;;;;;;;11.68;7.35;;;13.30;99.90;;;;;;4997467;28;20198;-63
2022/10/23 03:14:34;;;;;;;10.57;6.70;;;13.20;99.90;;;;;;5014326;28;20033;-64
2022/10/23 03:17:20;;;;;;;9.38;6.80;;;13.20;99.90;;;;;;4999776;28;20532;-64
2022/10/23 03:20:07;;;;;;;8.35;6.43;;;13.20;99.90;;;;;;5000306;28;20057;-63
2022/10/23 03:22:56;;;;;;;8.55;6.82;;;13.20;99.90;;;;;;5016234;28;20030;-62
2022/10/23 03:25:42;;;;;;;11.10;6.93;;;13.20;99.90;;;;;;4994879;28;20085;-64
2022/10/23 03:28:29;;;;;;;8.45;6.57;;;13.20;99.90;;;;;;5003475;28;20069;-62
2022/10/23 03:31:15;;;;;;;7.57;6.78;;;13.20;99.90;;;;;;4998355;28;20479;-62
2022/10/23 03:34:01;;;;;;;10.98;7.00;;;13.20;99.90;;;;;;4992314;28;20040;-61
2022/10/23 03:36:47;;;;;;;8.05;7.10;;;13.20;99.90;;;;;;5006299;28;20085;-62
2022/10/23 03:39:34;;;;;;;7.93;6.50;;;13.20;99.90;;;;;;4992252;28;20112;-62
2022/10/23 03:42:20;;;;;;;7.50;6.07;;;13.20;99.90;;;;;;5006091;28;20030;-62
2022/10/23 03:45:07;;;;;;;9.43;5.97;;;13.20;99.90;;;;;;4993570;28;20034;-61
2022/10/23 03:47:53;;;;;;;7.57;5.90;;;13.20;99.90;;;;;;4993354;28;20054;-62
2022/10/23 03:50:39;;;;;;;8.57;6.05;;;13.20;99.90;;;;;;5022172;28;20061;-63
2022/10/23 03:53:26;;;;;;;7.63;6.55;;;13.10;99.90;;;;;;4981396;28;20038;-62
2022/10/23 03:56:12;;;;;;;10.68;6.70;;;13.00;99.90;;;;;;5006642;28;20569;-63
2022/10/23 03:58:58;;;;;;;6.72;6.03;;;12.90;99.90;;;;;;4975552;28;20117;-62
2022/10/23 04:01:44;;;;;;;8.20;6.45;;;12.90;99.90;;;;;;5002824;28;20034;-62
2022/10/23 04:04:31;;;;;;;7.07;5.80;;;12.90;99.90;;;;;;5004221;28;20022;-59
2022/10/23 04:07:17;;;;;;;9.30;6.97;;;12.90;99.90;;;;;;4987946;28;20038;-62
2022/10/23 04:10:06;;;;;;;43.97;27.92;;;12.90;99.90;;;;;;5002060;28;20061;-62
2022/10/23 04:12:52;;;;;;;45.55;28.23;;;12.90;99.90;;;;;;5018513;28;20042;-62
2022/10/23 04:15:38;;;;;;;20.08;13.30;;;12.90;99.90;;;;;;5003462;28;20034;-61
2022/10/23 04:18:24;;;;;;;16.00;8.50;;;13.00;99.90;;;;;;5019595;28;20030;-62
2022/10/23 04:21:11;;;;;;;10.15;7.70;;;12.90;99.90;;;;;;4998597;28;20199;-60
2022/10/23 04:23:57;;;;;;;8.55;6.32;;;12.90;99.90;;;;;;5012216;28;20034;-60
2022/10/23 04:26:42;;;;;;;9.00;6.35;;;12.90;99.90;;;;;;4997903;28;20026;-63
2022/10/23 04:29:31;;;;;;;10.43;7.03;;;12.90;99.90;;;;;;4999456;28;20030;-62
2022/10/23 04:32:17;;;;;;;7.40;6.47;;;12.80;99.90;;;;;;5011891;28;20483;-60
2022/10/23 04:35:03;;;;;;;10.75;6.85;;;12.80;99.90;;;;;;5008964;28;20376;-62
2022/10/23 04:37:49;;;;;;;8.93;7.03;;;12.80;99.90;;;;;;5005332;28;20069;-63
2022/10/23 04:40:35;;;;;;;11.23;7.53;;;12.80;99.90;;;;;;4991086;28;20553;-61
2022/10/23 04:43:21;;;;;;;7.82;7.03;;;12.80;99.90;;;;;;4995722;28;20086;-62
2022/10/23 04:46:07;;;;;;;9.30;6.75;;;12.70;99.90;;;;;;5012612;28;20034;-61
2022/10/23 04:48:53;;;;;;;9.13;6.80;;;12.80;99.90;;;;;;4997237;28;20113;-63
2022/10/23 04:51:39;;;;;;;7.25;6.45;;;12.70;99.90;;;;;;5006377;28;20032;-63
2022/10/23 04:54:25;;;;;;;11.32;7.70;;;12.70;99.90;;;;;;5005023;28;20584;-61
2022/10/23 04:57:11;;;;;;;7.78;6.97;;;12.70;99.90;;;;;;5012004;28;20025;-60
2022/10/23 04:59:56;;;;;;;13.43;7.35;;;12.70;99.90;;;;;;4997137;28;20026;-60
2022/10/23 05:02:43;;;;;;;8.07;7.22;;;12.70;99.90;;;;;;4993451;28;20030;-64
2022/10/23 05:05:29;;;;;;;11.02;7.35;;;12.60;99.90;;;;;;5009119;28;20121;-64
2022/10/23 05:08:15;;;;;;;9.95;7.85;;;12.60;99.90;;;;;;5011444;28;20390;-64
2022/10/23 05:11:01;;;;;;;11.43;7.32;;;12.60;99.90;;;;;;4997949;28;20478;-64
2022/10/23 05:13:47;;;;;;;8.65;7.38;;;12.50;99.90;;;;;;4998157;28;20144;-67
2022/10/23 05:16:40;;;;;;;10.95;7.10;;;12.50;99.90;;;;;;4983761;28;20120;-65
2022/10/23 05:19:32;;;;;;;8.05;6.75;;;12.50;99.90;;;;;;5005055;28;20378;-64
2022/10/23 05:22:21;;;;;;;9.45;6.82;;;12.50;99.90;;;;;;5011447;28;20084;-64
2022/10/23 05:25:08;;;;;;;7.32;6.63;;;12.50;99.90;;;;;;5011847;28;20030;-65
2022/10/23 05:27:54;;;;;;;9.68;7.57;;;12.50;99.90;;;;;;5011805;28;20046;-64
2022/10/23 05:30:41;;;;;;;8.65;6.88;;;12.40;99.90;;;;;;5012173;28;20026;-63
2022/10/23 05:33:28;;;;;;;7.72;6.65;;;12.30;99.90;;;;;;5012110;28;20486;-63
2022/10/23 05:36:15;;;;;;;8.25;7.38;;;12.30;99.90;;;;;;5010251;28;20037;-65
2022/10/23 05:39:02;;;;;;;10.63;7.10;;;12.30;99.90;;;;;;4978436;28;20487;-63
2022/10/23 05:41:48;;;;;;;8.90;6.30;;;12.20;99.90;;;;;;4991131;28;20034;-66
2022/10/23 05:44:35;;;;;;;6.78;5.85;;;12.20;99.90;;;;;;5012918;28;20030;-65
2022/10/23 05:47:21;;;;;;;10.23;6.15;;;12.10;99.90;;;;;;4996974;28;20034;-63
2022/10/23 05:50:07;;;;;;;8.30;5.93;;;12.00;99.90;;;;;;4997349;28;20041;-63
2022/10/23 05:52:53;;;;;;;7.32;6.05;;;12.00;99.90;;;;;;4977321;28;20049;-63
2022/10/23 05:55:39;;;;;;;6.95;6.25;;;12.00;99.90;;;;;;4980403;28;20058;-62
2022/10/23 05:58:25;;;;;;;7.38;6.57;;;12.00;99.90;;;;;;4988529;28;20022;-63
2022/10/23 06:01:12;;;;;;;7.25;6.30;;;12.00;99.90;;;;;;5011129;28;20034;-62
2022/10/23 06:04:00;;;;;;;6.10;5.50;;;12.00;99.90;;;;;;5010740;28;20033;-64
2022/10/23 06:06:46;;;;;;;7.00;5.85;;;12.00;99.90;;;;;;5001645;28;20086;-63
2022/10/23 06:09:32;;;;;;;6.03;5.43;;;12.00;99.90;;;;;;5001868;28;20034;-64
2022/10/23 06:12:23;;;;;;;10.88;7.03;;;12.10;99.90;;;;;;4985345;28;20045;-65
2022/10/23 06:15:12;;;;;;;10.07;6.55;;;12.10;99.90;;;;;;5002869;28;20033;-65
2022/10/23 06:18:28;;;;;;;6.47;5.93;;;12.10;99.90;;;;;;4971294;28;20026;-63
2022/10/23 06:21:14;;;;;;;6.55;5.80;;;12.20;99.90;;;;;;5010226;28;20113;-63
2022/10/23 06:24:00;;;;;;;9.45;5.20;;;12.20;99.90;;;;;;4983467;28;20041;-64
2022/10/23 06:26:46;;;;;;;7.05;5.35;;;12.20;99.90;;;;;;4977646;28;20384;-63
2022/10/23 06:29:32;;;;;;;6.88;5.82;;;12.20;99.90;;;;;;4984608;28;20023;-64
2022/10/23 06:32:18;;;;;;;8.43;6.40;;;12.20;99.90;;;;;;4994816;28;20022;-61
2022/10/23 06:35:04;;;;;;;8.43;5.63;;;12.20;99.90;;;;;;5010762;28;20414;-62
2022/10/23 06:37:50;;;;;;;6.45;5.50;;;12.30;99.90;;;;;;4997870;28;20026;-64
2022/10/23 06:40:36;;;;;;;6.20;5.50;;;12.30;99.90;;;;;;4980532;28;20030;-64
2022/10/23 06:43:22;;;;;;;6.38;5.53;;;12.40;99.90;;;;;;4981554;28;20027;-62
2022/10/23 06:46:09;;;;;;;6.38;5.75;;;12.40;99.90;;;;;;4997602;28;20062;-62
2022/10/23 06:48:55;;;;;;;5.78;5.15;;;12.40;99.90;;;;;;5014482;28;20405;-62
2022/10/23 06:51:42;;;;;;;6.00;5.07;;;12.50;99.90;;;;;;4968128;28;20030;-63
2022/10/23 06:54:27;;;;;;;6.65;5.70;;;12.50;99.90;;;;;;4998428;28;20038;-66
2022/10/23 06:57:13;;;;;;;7.82;5.60;;;12.60;99.90;;;;;;5014564;28;20034;-64
2022/10/23 06:59:59;;;;;;;5.93;5.32;;;12.60;99.90;;;;;;5014552;28;20060;-63
2022/10/23 07:02:45;;;;;;;10.40;7.25;;;12.60;99.90;;;;;;4973365;28;20041;-66
2022/10/23 07:05:31;;;;;;;7.82;7.03;;;12.70;99.90;;;;;;4999805;28;20127;-65
2022/10/23 07:08:33;;;;;;;7.28;5.75;;;12.80;99.90;;;;;;5000707;28;20061;-64
2022/10/23 07:11:19;;;;;;;10.07;6.45;;;12.80;99.90;;;;;;5013937;28;20053;-64
2022/10/23 07:14:05;;;;;;;6.82;5.93;;;12.90;99.90;;;;;;5013857;28;20073;-62
2022/10/23 07:16:51;;;;;;;7.07;5.45;;;12.80;99.90;;;;;;5000024;28;20026;-66
2022/10/23 07:19:37;;;;;;;6.25;5.40;;;12.90;99.90;;;;;;5009158;28;20521;-63
2022/10/23 07:22:23;;;;;;;6.68;5.68;;;12.90;99.90;;;;;;5007863;28;20048;-67
2022/10/23 07:25:09;;;;;;;7.60;5.72;;;12.90;99.90;;;;;;5014555;28;20524;-65
2022/10/23 07:27:58;;;;;;;9.52;6.65;;;13.00;99.90;;;;;;5015252;28;20042;-63
2022/10/23 07:30:44;;;;;;;7.05;5.78;;;13.00;99.90;;;;;;4999438;28;20026;-64
2022/10/23 07:33:30;;;;;;;9.00;6.60;;;13.10;99.90;;;;;;5012290;28;20042;-63
2022/10/23 07:36:16;;;;;;;12.65;8.68;;;13.10;99.90;;;;;;5013351;28;20432;-62
2022/10/23 07:39:03;;;;;;;12.35;8.70;;;13.20;99.90;;;;;;5011666;28;20161;-61
2022/10/23 07:41:49;;;;;;;10.18;8.73;;;13.30;99.90;;;;;;5011899;28;20192;-59
2022/10/23 07:44:35;;;;;;;7.85;7.00;;;13.30;99.90;;;;;;5005999;28;20025;-60
2022/10/23 07:47:24;;;;;;;8.57;6.55;;;13.40;99.90;;;;;;4996560;28;20113;-60
2022/10/23 07:50:10;;;;;;;11.68;10.02;;;13.50;99.90;;;;;;5011183;28;20036;-64
2022/10/23 07:52:57;;;;;;;13.38;10.32;;;13.50;99.90;;;;;;5014224;28;20018;-63
2022/10/23 07:55:51;;;;;;;15.10;12.82;;;13.60;99.90;;;;;;5010980;28;20073;-61
2022/10/23 07:58:37;;;;;;;13.77;11.95;;;13.70;99.90;;;;;;4996166;28;20030;-61
2022/10/23 08:01:32;;;;;;;29.80;22.98;;;13.80;99.90;;;;;;4996753;28;20034;-60
2022/10/23 08:04:18;;;;;;;28.35;21.70;;;13.90;99.90;;;;;;5010340;28;20384;-61
2022/10/23 08:07:04;;;;;;;17.35;15.40;;;14.00;99.90;;;;;;4998493;28;20030;-57
2022/10/23 08:09:50;;;;;;;12.90;11.50;;;14.00;99.90;;;;;;5011056;28;20093;-58
2022/10/23 08:12:37;;;;;;;11.00;9.15;;;14.10;99.90;;;;;;4998250;28;20022;-57
2022/10/23 08:15:23;;;;;;;9.13;7.32;;;14.20;99.90;;;;;;5011150;28;20038;-59
2022/10/23 08:18:09;;;;;;;8.95;7.10;;;14.20;99.90;;;;;;4980366;28;20101;-60
2022/10/23 08:21:00;;;;;;;11.05;8.18;;;14.30;99.90;;;;;;5000456;28;20022;-61
2022/10/23 08:23:46;;;;;;;9.50;7.68;;;14.40;99.90;;;;;;5010164;28;20112;-64
2022/10/23 08:26:32;;;;;;;10.13;7.90;;;14.40;99.90;;;;;;5015141;28;20022;-60
2022/10/23 08:29:18;;;;;;;12.20;9.48;;;14.40;99.90;;;;;;5012487;28;20116;-62
2022/10/23 08:32:04;;;;;;;15.88;13.63;;;14.50;99.90;;;;;;4997524;28;20077;-66
2022/10/23 08:34:50;;;;;;;14.70;11.98;;;14.60;99.90;;;;;;4995654;28;20510;-66
2022/10/23 08:37:36;;;;;;;33.40;23.90;;;14.60;99.90;;;;;;4995887;28;20397;-66
2022/10/23 08:40:26;;;;;;;26.73;17.75;;;14.70;99.90;;;;;;5014197;28;20675;-69
2022/10/23 08:43:37;;;;;;;11.32;6.70;;;14.70;99.90;;;;;;5009482;28;20478;-65
2022/10/23 08:46:29;;;;;;;11.98;5.90;;;14.70;99.90;;;;;;5010409;28;20049;-63
2022/10/23 08:49:30;;;;;;;8.32;5.80;;;14.70;99.90;;;;;;5011333;28;20033;-65
2022/10/23 08:52:26;;;;;;;9.77;6.20;;;14.80;99.90;;;;;;5011095;28;20049;-60
2022/10/23 08:55:37;;;;;;;8.77;5.43;;;14.90;99.90;;;;;;4998836;28;20030;-66
2022/10/23 08:58:44;;;;;;;8.68;6.18;;;15.00;99.90;;;;;;4982718;28;20029;-65
2022/10/23 09:01:31;;;;;;;14.43;9.95;;;15.10;99.90;;;;;;5008979;28;20018;-63
2022/10/23 09:04:17;;;;;;;14.63;9.40;;;15.10;99.90;;;;;;4997044;28;20088;-64
2022/10/23 09:07:31;;;;;;;10.25;6.75;;;15.10;99.90;;;;;;4996966;28;20065;-67
2022/10/23 09:10:41;;;;;;;10.75;6.40;;;15.30;99.90;;;;;;5009643;28;20109;-65
2022/10/23 09:13:48;;;;;;;8.55;6.68;;;15.50;99.90;;;;;;5012912;28;20049;-65
2022/10/23 09:16:53;;;;;;;11.45;5.97;;;15.70;99.90;;;;;;5013164;28;20030;-66
2022/10/23 09:19:45;;;;;;;8.23;5.68;;;15.90;99.90;;;;;;5011541;28;20069;-66
2022/10/23 09:22:31;;;;;;;11.77;8.60;;;16.00;99.90;;;;;;4997237;28;20034;-65
2022/10/23 09:25:24;;;;;;;9.48;6.57;;;16.20;99.90;;;;;;5011591;28;20041;-65
2022/10/23 09:28:20;;;;;;;9.40;6.57;;;16.30;99.90;;;;;;4981516;28;20108;-65
2022/10/23 09:31:07;;;;;;;6.97;5.63;;;16.40;99.90;;;;;;5008502;28;20034;-67
2022/10/23 09:33:56;;;;;;;10.65;7.30;;;16.40;99.90;;;;;;4980511;28;20069;-66
2022/10/23 09:36:49;;;;;;;10.55;7.65;;;16.50;99.90;;;;;;4980047;28;20041;-66
2022/10/23 09:39:36;;;;;;;12.88;7.97;;;16.50;99.90;;;;;;4997027;28;20018;-63
2022/10/23 09:42:24;;;;;;;9.63;7.70;;;16.50;99.90;;;;;;4996114;28;20040;-65
2022/10/23 09:45:24;;;;;;;11.10;9.82;;;16.50;99.90;;;;;;5011969;28;20034;-64
2022/10/23 09:48:18;;;;;;;9.27;7.63;;;16.60;99.90;;;;;;4990734;28;20533;-64
2022/10/23 09:51:16;;;;;;;9.88;5.97;;;16.80;99.90;;;;;;5004452;28;20704;-65
2022/10/23 09:54:02;;;;;;;7.55;5.75;;;16.90;99.90;;;;;;4996916;28;20446;-64
2022/10/23 09:56:49;;;;;;;12.75;6.63;;;16.90;99.90;;;;;;4998223;28;20030;-65
2022/10/23 09:59:39;;;;;;;7.68;5.90;;;16.90;99.90;;;;;;4994933;28;20033;-67
2022/10/23 10:02:31;;;;;;;7.13;5.55;;;17.00;99.90;;;;;;5006517;28;20595;-65
2022/10/23 10:05:35;;;;;;;11.50;6.22;;;17.10;99.90;;;;;;5007993;28;20037;-66
2022/10/23 10:08:34;;;;;;;7.93;5.70;;;17.30;99.90;;;;;;4996242;28;20569;-63
2022/10/23 10:11:39;;;;;;;9.00;5.40;;;17.40;99.90;;;;;;5014663;28;20030;-63
2022/10/23 10:14:49;;;;;;;10.75;5.97;;;17.50;99.90;;;;;;5008237;28;20506;-64
2022/10/23 10:17:53;;;;;;;17.88;5.82;;;17.60;99.90;;;;;;5007647;28;20022;-66
2022/10/23 10:20:45;;;;;;;10.57;5.18;;;17.70;99.90;;;;;;4998842;28;20026;-64
2022/10/23 10:23:40;;;;;;;9.85;5.75;;;17.80;99.90;;;;;;4995941;28;20034;-64
2022/10/23 10:26:49;;;;;;;5.22;4.13;;;17.80;99.90;;;;;;4997478;28;20416;-66
2022/10/23 10:29:54;;;;;;;7.13;4.90;;;18.10;99.90;;;;;;4987516;28;20405;-65
2022/10/23 10:33:01;;;;;;;8.75;5.55;;;18.20;99.90;;;;;;4995157;28;20160;-66
2022/10/23 10:36:25;;;;;;;10.18;6.35;;;18.30;99.90;;;;;;4989865;28;20541;-64
2022/10/23 10:39:27;;;;;;;10.23;5.78;;;18.50;99.90;;;;;;4990889;28;20034;-69
2022/10/23 10:42:16;;;;;;;7.68;4.88;;;18.60;99.90;;;;;;4990206;28;20482;-67
2022/10/23 10:45:16;;;;;;;10.13;5.28;;;18.80;99.90;;;;;;5009920;28;20091;-66
2022/10/23 10:48:18;;;;;;;8.25;4.88;;;18.80;99.90;;;;;;4995201;28;20114;-65
2022/10/23 10:51:29;;;;;;;8.70;4.45;;;19.10;99.90;;;;;;5009491;28;20026;-68
2022/10/23 10:54:29;;;;;;;6.03;4.25;;;19.30;99.90;;;;;;5008835;28;20030;-64
2022/10/23 10:57:35;;;;;;;7.30;4.07;;;19.50;99.90;;;;;;5008940;28;20026;-67
2022/10/23 11:00:22;;;;;;;7.25;4.25;;;19.40;99.90;;;;;;5008613;28;20034;-67
2022/10/23 11:03:16;;;;;;;9.05;4.82;;;19.50;99.90;;;;;;5009991;28;20045;-65
2022/10/23 11:06:05;;;;;;;6.15;3.85;;;19.60;99.90;;;;;;5010071;28;20037;-69
2022/10/23 11:08:50;;;;;;;7.03;3.70;;;19.60;99.90;;;;;;4976777;28;20031;-64
2022/10/23 11:11:42;;;;;;;6.78;4.15;;;19.60;99.90;;;;;;4981807;28;20030;-67
2022/10/23 11:14:33;;;;;;;6.97;4.25;;;19.50;99.90;;;;;;4982194;28;20036;-64
2022/10/23 11:17:27;;;;;;;7.32;3.90;;;19.50;99.80;;;;;;5009900;28;20030;-66
2022/10/23 11:20:22;;;;;;;8.10;4.50;;;19.50;99.60;;;;;;5010824;28;20105;-67
2022/10/23 11:23:37;;;;;;;5.07;3.88;;;19.50;99.70;;;;;;4991002;28;20034;-67
2022/10/23 11:26:45;;;;;;;7.55;4.00;;;19.60;99.70;;;;;;5003647;28;20030;-65
2022/10/23 11:29:59;;;;;;;4.40;3.75;;;19.60;99.40;;;;;;4999766;28;20030;-65
2022/10/23 11:32:48;;;;;;;5.85;4.22;;;19.70;99.50;;;;;;5014034;28;20021;-67
2022/10/23 11:35:40;;;;;;;6.70;3.70;;;19.60;98.90;;;;;;5013610;28;20394;-65
2022/10/23 11:38:35;;;;;;;5.78;3.58;;;19.50;98.90;;;;;;4999745;28;20394;-64
2022/10/23 11:41:32;;;;;;;5.40;4.32;;;19.50;99.00;;;;;;4971485;28;20041;-64
2022/10/23 11:44:34;;;;;;;5.30;3.90;;;19.50;99.00;;;;;;4980406;28;20575;-65
2022/10/23 11:47:54;;;;;;;6.03;4.35;;;19.50;98.50;;;;;;5011274;28;20030;-64
2022/10/23 11:50:43;;;;;;;5.97;4.18;;;19.30;98.80;;;;;;4998537;28;20106;-67
2022/10/23 11:53:33;;;;;;;4.35;3.70;;;19.10;99.10;;;;;;4998471;28;20030;-64
2022/10/23 11:56:19;;;;;;;5.72;4.20;;;19.00;99.40;;;;;;5012306;28;20045;-64
2022/10/23 11:59:27;;;;;;;6.53;4.25;;;19.10;99.50;;;;;;5000172;28;20055;-65
2022/10/23 12:02:30;;;;;;;4.22;3.63;;;19.00;99.40;;;;;;4994313;28;20038;-67
2022/10/23 12:05:40;;;;;;;5.93;4.05;;;19.00;99.40;;;;;;5007430;28;20061;-66
2022/10/23 12:08:29;;;;;;;6.15;3.55;;;19.00;99.30;;;;;;4994201;28;20118;-67
2022/10/23 12:11:27;;;;;;;5.85;3.97;;;19.00;99.50;;;;;;5008337;28;20104;-64
2022/10/23 12:14:41;;;;;;;4.65;3.40;;;19.10;99.40;;;;;;4998016;28;20088;-65
2022/10/23 12:17:34;;;;;;;5.65;3.88;;;19.10;99.40;;;;;;4977475;28;20062;-68
2022/10/23 12:20:29;;;;;;;6.10;4.30;;;19.10;99.40;;;;;;4998561;28;20037;-66
2022/10/23 12:23:18;;;;;;;;;;;19.10;99.30;;;;;;5012395;28;20022;-68
2022/10/23 12:26:15;;;;;;;5.53;4.25;;;19.10;99.10;;;;;;5012982;28;19963;-65
2022/10/23 12:29:13;;;;;;;6.32;4.15;;;19.00;99.20;;;;;;5013511;28;20121;-65
2022/10/23 12:32:07;;;;;;;4.18;3.63;;;19.00;99.00;;;;;;4997617;28;20080;-65
2022/10/23 12:35:09;;;;;;;6.43;4.10;;;19.00;98.80;;;;;;4997299;28;20375;-67
2022/10/23 12:38:09;;;;;;;5.22;3.80;;;19.10;98.90;;;;;;5012854;28;20414;-66
2022/10/23 12:41:24;;;;;;;11.00;4.72;;;19.10;98.80;;;;;;5011764;28;20018;-65
2022/10/23 12:44:11;;;;;;;5.97;3.53;;;19.00;98.80;;;;;;4984776;28;20172;-65
2022/10/23 12:47:02;;;;;;;6.78;3.80;;;19.00;98.90;;;;;;4992583;28;20058;-67
2022/10/23 12:49:49;;;;;;;7.95;3.90;;;19.00;98.90;;;;;;4997618;28;20022;-64
2022/10/23 12:52:38;;;;;;;7.38;3.78;;;19.10;98.90;;;;;;5012341;28;20391;-64
2022/10/23 12:55:26;;;;;;;5.50;3.65;;;19.10;99.00;;;;;;5012808;28;20512;-67
2022/10/23 12:58:24;;;;;;;5.60;4.38;;;19.20;99.00;;;;;;5012481;28;20065;-66
2022/10/23 13:01:24;;;;;;;5.55;3.70;;;19.20;99.10;;;;;;4997779;28;20113;-69
2022/10/23 13:04:15;;;;;;;7.05;4.07;;;19.20;99.10;;;;;;4998582;28;20026;-69
2022/10/23 13:07:02;;;;;;;5.13;4.13;;;19.20;99.10;;;;;;4993215;28;20033;-71
2022/10/23 13:09:49;;;;;;;6.57;4.13;;;19.30;99.80;;;;;;4984425;28;20034;-71
2022/10/23 13:12:37;;;;;;;7.05;4.85;;;19.40;99.90;;;;;;5012501;28;20038;-68
2022/10/23 13:15:25;;;;;;;8.15;4.13;;;19.50;99.90;;;;;;5011648;28;20072;-67
2022/10/23 13:18:15;;;;;;;6.57;4.00;;;19.50;99.90;;;;;;5013157;28;20486;-70
2022/10/23 13:21:01;;;;;;;18.10;14.23;;;19.70;99.80;;;;;;5013361;28;20107;-70
2022/10/23 13:23:50;;;;;;;6.10;5.10;;;19.70;99.50;;;;;;5013120;28;20040;-68
2022/10/23 13:26:46;;;;;;;9.05;4.70;;;19.80;98.60;;;;;;5001896;28;20021;-64
2022/10/23 13:29:33;;;;;;;6.20;4.20;;;19.80;98.90;;;;;;5017540;28;20074;-65
2022/10/23 13:32:23;;;;;;;5.38;4.00;;;19.90;98.40;;;;;;5018350;28;20503;-66
2022/10/23 13:35:21;;;;;;;6.63;3.90;;;19.90;98.40;;;;;;5002087;28;20402;-65
2022/10/23 13:38:08;;;;;;;4.03;3.35;;;19.80;98.20;;;;;;5031450;28;20097;-66
2022/10/23 13:40:57;;;;;;;3.90;3.42;;;19.70;98.40;;;;;;5001927;28;20061;-65
2022/10/23 13:43:44;;;;;;;6.38;3.63;;;19.60;98.30;;;;;;5011250;28;20022;-66
2022/10/23 13:46:31;;;;;;;5.95;3.88;;;19.50;98.50;;;;;;5010356;28;20034;-65
2022/10/23 13:49:18;;;;;;;4.28;3.88;;;19.40;98.60;;;;;;5011440;28;20093;-65
2022/10/23 13:52:08;;;;;;;5.40;3.95;;;19.40;99.10;;;;;;5002704;28;20088;-65
2022/10/23 13:54:53;;;;;;;5.22;4.10;;;19.30;99.20;;;;;;4977613;28;20117;-67
2022/10/23 13:57:39;;;;;;;3.85;3.47;;;19.30;99.30;;;;;;4978531;28;20034;-65
2022/10/23 14:00:25;;;;;;;4.63;3.65;;;19.20;99.20;;;;;;4997216;28;20037;-67
2022/10/23 14:03:11;;;;;;;10.10;4.30;;;19.20;99.20;;;;;;5010705;28;20491;-65
2022/10/23 14:05:57;;;;;;;6.55;4.50;;;19.00;99.20;;;;;;5010865;28;20041;-65
2022/10/23 14:08:43;;;;;;;4.75;4.22;;;18.90;99.30;;;;;;4995643;28;20081;-64
2022/10/23 14:11:30;;;;;;;6.20;4.57;;;18.80;99.50;;;;;;5010293;28;20085;-65
2022/10/23 14:14:16;;;;;;;7.63;4.22;;;18.70;99.70;;;;;;4996093;28;20044;-65
2022/10/23 14:17:02;;;;;;;7.85;4.53;;;18.70;99.90;;;;;;4995323;28;20093;-64
2022/10/23 14:19:49;;;;;;;4.38;3.78;;;18.70;99.90;;;;;;5009587;28;20022;-64
2022/10/23 14:22:34;;;;;;;6.03;4.60;;;18.60;99.90;;;;;;5014944;28;20052;-67
2022/10/23 14:25:21;;;;;;;6.82;4.60;;;18.50;99.90;;;;;;5012041;28;20089;-65
2022/10/23 14:28:07;;;;;;;5.40;4.57;;;18.50;99.90;;;;;;5019863;28;20053;-64
2022/10/23 14:30:53;;;;;;;11.93;4.93;;;18.40;99.90;;;;;;5011193;28;20041;-65
2022/10/23 14:33:39;;;;;;;7.78;4.30;;;18.40;99.90;;;;;;5002338;28;20462;-65
2022/10/23 14:36:27;;;;;;;8.95;4.57;;;18.40;99.90;;;;;;5011203;28;20045;-65
2022/10/23 14:39:12;;;;;;;6.10;4.45;;;18.40;99.90;;;;;;5017867;28;20080;-65
2022/10/23 14:41:58;;;;;;;7.20;4.65;;;18.40;99.90;;;;;;5002896;28;20057;-64
2022/10/23 14:44:44;;;;;;;6.97;4.70;;;18.30;99.90;;;;;;5014781;28;20044;-64
2022/10/23 14:47:30;;;;;;;6.60;4.80;;;18.30;99.90;;;;;;5013961;28;20026;-65